SDAI weather

Americana Airport
Americana, São Paulo, Brazil

Public forecast

Using degrees Celsius for public forecast. Weather courtesy of forecast.io.

METAR (pilot weather report)

Closest report is Viracopos International Airport, 16.8 nm (31.2 km) SSE. Retrieved 2019/08/25 21:00 UTC (11 minutes ago):

SBKP 252100Z 14018KT CAVOK 20/11 Q1023

TAF (pilot weather forecast)

Closest forecast is Viracopos International Airport, 16.8 nm (31.2 km) SSE. Retrieved 2019/08/25 18:30 UTC (3 hours ago):

TAF SBKP 251645Z 2518/2618 14012KT 9999 FEW045TN13/2609Z TX27/2617Z BECMG 2519/2521 CAVOK BECMG 2600/2602 12007KT PROB30 2608/2611 7000 NSC BECMG 2611/2613 06005KT RMK PGO